»·PEaware :: QXE2100 KSEA-KPSC

QXE2100 :: KSEA-KPSC

FLIGHT INFORMATION

Flight Status: Arrived
Operator:
Horizon Air
More flights by this operator :: More flights under this callsign
Pilot: Adlai G. (28854)
Aircraft: DEHAVILLAND DASH 8 400
(DH8D)
More flights by this aircraft type
Origin: KSEA Seattle-Tacoma Intl
United States
Destination: KPSC Tri-Cities
United States
More flights between these airports :: More routes between these airports
Route: SEA V2 ELN V187 PSC
File this flight plan on PilotEdge
Remarks:
Altitude:
(Current/Filed)
17,000ft
Speed:
(Current/Filed)
362kts
Departed: 21-Apr-21 08:58 PM
Arrived: 21-Apr-21 09:34 PM
Distance/Time
Traveled:
149nm/0:36
Distance/Time
To Go:
Arrived

Flight Plot

Page will automatically refresh every two minutes.

Flight plan parsing failed; only flown route is shown


Map Options




Map Legend


Flown Route
Filed Route
Departure Airport
Arrival Airport
Navaid (VOR, NDB)
Fix

Horizontal Profiles

Position Reports

Time Latitude Longitude Heading Altitude Ground
Speed
21-Apr-21 20:24 47.445396 -122.304596 50 440ft 0kts
21-Apr-21 20:25 47.445396 -122.304596 50 440ft 0kts
21-Apr-21 20:26 47.445396 -122.304596 50 440ft 0kts
21-Apr-21 20:27 47.445397 -122.304595 50 440ft 0kts
21-Apr-21 20:28 47.445397 -122.304595 50 440ft 0kts
21-Apr-21 20:29 47.445397 -122.304595 50 440ft 0kts
21-Apr-21 20:30 47.445397 -122.304595 50 440ft 0kts
21-Apr-21 20:31 47.445397 -122.304595 50 440ft 0kts
21-Apr-21 20:32 47.445397 -122.304595 50 440ft 0kts
21-Apr-21 20:33 47.445397 -122.304595 50 440ft 0kts
21-Apr-21 20:34 47.445397 -122.304595 50 440ft 0kts
21-Apr-21 20:35 47.445397 -122.304595 50 440ft 0kts
21-Apr-21 20:36 47.445397 -122.304595 50 440ft 0kts
21-Apr-21 20:37 47.445397 -122.304595 50 440ft 0kts
21-Apr-21 20:38 47.445397 -122.304595 50 440ft 0kts
21-Apr-21 20:39 47.445397 -122.304595 50 440ft 0kts
21-Apr-21 20:40 47.445397 -122.304595 50 440ft 0kts
21-Apr-21 20:41 47.445397 -122.304595 50 440ft 0kts
21-Apr-21 20:42 47.445397 -122.304595 50 440ft 0kts
21-Apr-21 20:43 47.445397 -122.304595 50 440ft 0kts
21-Apr-21 20:44 47.445397 -122.304595 50 440ft 0kts
21-Apr-21 20:45 47.445397 -122.304595 50 440ft 0kts
21-Apr-21 20:46 47.445397 -122.304595 50 440ft 0kts
21-Apr-21 20:47 47.445397 -122.304595 50 440ft 0kts
21-Apr-21 20:48 47.445165 -122.305044 57 440ft 2kts
21-Apr-21 20:49 47.444997 -122.305912 89 440ft 0kts
21-Apr-21 20:50 47.444997 -122.305912 89 440ft 0kts
21-Apr-21 20:51 47.444997 -122.305912 89 440ft 0kts
21-Apr-21 20:52 47.444997 -122.305890 89 440ft 0kts
21-Apr-21 20:53 47.444206 -122.305670 179 440ft 8kts
21-Apr-21 20:54 47.440993 -122.306352 180 440ft 19kts
21-Apr-21 20:55 47.435712 -122.306207 158 440ft 16kts
21-Apr-21 20:57 47.432100 -122.305906 202 440ft 12kts
21-Apr-21 20:58 47.435651 -122.307968 0 441ft 95kts
21-Apr-21 20:59 47.476451 -122.309519 348 2605ft 184kts
21-Apr-21 21:00 47.537339 -122.316894 357 3305ft 242kts
21-Apr-21 21:01 47.599722 -122.317756 15 7289ft 212kts
21-Apr-21 21:02 47.612724 -122.233663 110 10033ft 255kts
21-Apr-21 21:03 47.556961 -122.165287 148 12433ft 272kts
21-Apr-21 21:04 47.491496 -122.102072 148 14081ft 300kts
21-Apr-21 21:05 47.416716 -122.030009 148 14594ft 336kts
21-Apr-21 21:06 47.354125 -121.933780 108 16310ft 313kts
21-Apr-21 21:07 47.327700 -121.808804 104 16977ft 337kts
21-Apr-21 21:08 47.298073 -121.672350 105 16984ft 360kts
21-Apr-21 21:09 47.266716 -121.529458 106 16973ft 370kts
21-Apr-21 21:10 47.234521 -121.384728 106 16965ft 372kts
21-Apr-21 21:11 47.202415 -121.240233 106 16955ft 372kts
21-Apr-21 21:12 47.169949 -121.095796 106 16948ft 372kts
21-Apr-21 21:13 47.137405 -120.951448 106 16943ft 372kts
21-Apr-21 21:14 47.104703 -120.807475 107 16934ft 371kts
21-Apr-21 21:15 47.071869 -120.664195 107 16929ft 370kts
21-Apr-21 21:16 47.038897 -120.521153 107 16926ft 370kts
21-Apr-21 21:16 47.011964 -120.402331 106 16922ft 369kts
21-Apr-21 21:18 46.977510 -120.235211 105 16676ft 359kts
21-Apr-21 21:19 46.948193 -120.097177 105 16181ft 357kts
21-Apr-21 21:20 46.918543 -119.958430 106 15352ft 354kts
21-Apr-21 21:21 46.873030 -119.835751 139 13661ft 348kts
21-Apr-21 21:21 46.810636 -119.762452 141 12204ft 340kts
21-Apr-21 21:22 46.742014 -119.679436 141 10990ft 303kts
21-Apr-21 21:24 46.669049 -119.591321 141 9421ft 284kts
21-Apr-21 21:25 46.610103 -119.520931 142 7643ft 267kts
21-Apr-21 21:26 46.552470 -119.459409 149 6146ft 253kts
21-Apr-21 21:27 46.493063 -119.404731 148 4884ft 251kts
21-Apr-21 21:27 46.446234 -119.361095 148 3824ft 222kts
21-Apr-21 21:28 46.402157 -119.310411 136 3057ft 195kts
21-Apr-21 21:29 46.365403 -119.257642 136 2580ft 165kts
21-Apr-21 21:31 46.330837 -119.208678 136 2025ft 142kts
21-Apr-21 21:31 46.308188 -119.176691 136 1377ft 132kts
21-Apr-21 21:32 46.281971 -119.139770 136 673ft 130kts
21-Apr-21 21:33 46.262658 -119.112780 140 414ft 18kts
21-Apr-21 21:35 46.261622 -119.115025 248 414ft 10kts
21-Apr-21 21:35 46.261004 -119.116527 179 414ft 1kts
21-Apr-21 21:36 46.260530 -119.116345 156 414ft 0kts
21-Apr-21 21:37 46.260530 -119.116345 156 414ft 0kts
21-Apr-21 21:38 46.260530 -119.116345 156 414ft 0kts
21-Apr-21 21:40 46.260530 -119.116345 156 414ft 0kts
21-Apr-21 21:40 46.260530 -119.116345 156 414ft 0kts
21-Apr-21 21:41 46.260530 -119.116345 156 414ft 0kts

Navigation Log

Ident Type
Flight plan parsing failed, navigation log unavailable